Time;durP1;ratioP1;P1;durP2;ratioP2;P2;SDS_P1;SDS_P2;PMS_P1;PMS_P2;Temp;Humidity;BMP_temperature;BMP_pressure;BME280_temperature;BME280_humidity;BME280_pressure;Samples;Min_cycle;Max_cycle;Signal;HPM_P1;HPM_P2
2022/07/25 06:41:25;;;;;;;1.73;0.70;;;;;;;22.23;62.64;100902.75;4972466;28;126152;-35
2022/07/25 06:43:51;;;;;;;1.42;0.65;;;;;;;22.22;63.30;100914.84;4975039;28;96683;-35
2022/07/25 06:46:16;;;;;;;3.05;0.85;;;;;;;22.14;63.28;100897.38;4975014;28;104266;-35
2022/07/25 06:48:41;;;;;;;1.15;0.50;;;;;;;22.17;63.21;100903.41;4983284;28;114119;-35
2022/07/25 06:51:07;;;;;;;2.13;0.88;;;;;;;22.19;63.35;100909.63;4994263;28;97749;-35
2022/07/25 06:53:34;;;;;;;2.88;0.52;;;;;;;22.18;63.16;100902.38;4994070;28;96656;-35
2022/07/25 06:55:59;;;;;;;3.22;0.60;;;;;;;22.24;62.83;100898.13;4994101;28;96923;-35
2022/07/25 06:58:24;;;;;;;2.72;1.00;;;;;;;22.39;63.81;100909.38;4993770;28;99276;-35
2022/07/25 07:00:50;;;;;;;2.40;0.98;;;;;;;22.41;63.55;100912.81;4994032;28;97727;-35
2022/07/25 07:03:15;;;;;;;3.42;0.90;;;;;;;22.45;63.40;100898.50;4994213;28;96544;-35
2022/07/25 07:05:41;;;;;;;0.82;0.50;;;;;;;22.47;63.42;100901.94;4993998;28;98040;-35
2022/07/25 07:08:06;;;;;;;1.23;0.70;;;;;;;22.48;62.96;100900.91;4993527;28;99542;-35
2022/07/25 07:10:32;;;;;;;2.15;0.80;;;;;;;22.54;63.16;100904.88;4994167;28;98792;-35
2022/07/25 07:13:10;;;;;;;3.05;0.77;;;;;;;22.53;63.38;100916.13;4994139;28;96529;-35
2022/07/25 07:15:36;;;;;;;3.72;1.00;;;;;;;22.51;62.64;100909.91;4992950;28;96792;-35
2022/07/25 07:18:02;;;;;;;1.67;0.77;;;;;;;22.54;63.70;100912.31;4991964;28;100841;-35
2022/07/25 07:20:28;;;;;;;3.15;0.70;;;;;;;22.50;63.41;100920.09;4992295;28;100531;-36
2022/07/25 07:22:53;;;;;;;4.35;1.20;;;;;;;22.44;63.06;100915.22;4994054;28;96658;-35
2022/07/25 07:25:20;;;;;;;3.28;0.93;;;;;;;22.45;63.31;100915.06;4994286;28;96771;-35
2022/07/25 07:27:46;;;;;;;4.47;1.10;;;;;;;22.53;63.92;100918.88;4993771;28;98099;-35
2022/07/25 07:30:13;;;;;;;4.15;0.90;;;;;;;22.61;64.21;100921.63;4994354;28;100805;-35
2022/07/25 07:32:39;;;;;;;4.38;0.80;;;;;;;22.63;63.76;100923.19;4997146;28;96631;-35
2022/07/25 07:35:05;;;;;;;2.33;1.20;;;;;;;22.61;63.66;100914.19;4997643;28;97022;-36
2022/07/25 07:37:30;;;;;;;1.88;0.73;;;;;;;22.71;63.78;100929.75;4997056;28;97538;-35
2022/07/25 07:39:55;;;;;;;4.95;1.40;;;;;;;22.71;64.07;100922.31;4996834;28;99610;-35
2022/07/25 07:42:21;;;;;;;4.85;1.20;;;;;;;22.60;63.35;100922.69;4996227;28;97412;-35
2022/07/25 07:44:46;;;;;;;3.97;1.40;;;;;;;22.66;64.32;100931.13;4995504;28;109988;-35
2022/07/25 07:47:11;;;;;;;2.20;1.15;;;;;;;22.74;63.81;100937.69;4997123;28;97999;-35
2022/07/25 07:49:36;;;;;;;2.70;1.10;;;;;;;22.72;64.80;100926.81;4996941;28;98061;-35
2022/07/25 07:52:02;;;;;;;1.92;0.80;;;;;;;22.72;64.06;100928.72;4997168;28;96818;-35
2022/07/25 07:57:11;;;;;;;2.78;1.00;;;;;;;22.63;63.60;100916.81;4996667;28;97083;-35
2022/07/25 07:59:37;;;;;;;4.65;1.27;;;;;;;22.73;64.10;100923.00;4996848;28;106395;-35
2022/07/25 08:02:02;;;;;;;5.38;1.38;;;;;;;22.73;63.70;100920.25;4996863;28;96616;-35
2022/07/25 08:04:28;;;;;;;5.90;1.52;;;;;;;22.97;64.17;100919.38;4996620;28;96905;-35
2022/07/25 08:06:53;;;;;;;2.45;1.02;;;;;;;23.24;62.40;100918.19;4994826;28;121782;-35
2022/07/25 08:09:18;;;;;;;5.72;1.67;;;;;;;23.23;62.87;100918.34;4996524;28;98999;-35
2022/07/25 08:11:44;;;;;;;2.38;1.00;;;;;;;23.30;62.07;100917.47;4997036;28;96737;-35
2022/07/25 08:14:09;;;;;;;3.60;1.20;;;;;;;23.38;62.59;100926.78;4996690;28;96842;-35
2022/07/25 08:16:34;;;;;;;2.03;0.98;;;;;;;23.43;61.93;100916.03;4996463;28;97443;-35
2022/07/25 08:19:00;;;;;;;4.43;0.85;;;;;;;23.35;61.93;100918.84;4996231;28;97777;-35
2022/07/25 08:21:25;;;;;;;3.25;1.35;;;;;;;23.30;61.88;100916.59;4995330;28;96586;-35
2022/07/25 08:23:50;;;;;;;3.55;1.42;;;;;;;23.29;62.10;100918.50;4996909;28;96866;-35
2022/07/25 08:26:16;;;;;;;2.10;1.20;;;;;;;23.27;61.96;100915.06;4995596;28;117290;-35
2022/07/25 08:28:41;;;;;;;3.10;0.98;;;;;;;23.05;62.20;100891.78;4995576;28;115639;-35
2022/07/25 08:31:07;;;;;;;4.97;1.40;;;;;;;23.14;61.67;100911.09;4996172;28;96525;-35
2022/07/25 08:33:32;;;;;;;3.60;1.10;;;;;;;23.35;61.19;100919.69;4996280;28;96804;-35
2022/07/25 08:35:58;;;;;;;5.85;1.15;;;;;;;23.74;60.77;100930.88;4996381;28;97875;-35
2022/07/25 08:38:25;;;;;;;4.32;1.23;;;;;;;23.99;60.50;100929.91;4996074;28;97844;-35
2022/07/25 08:40:52;;;;;;;4.53;0.98;;;;;;;24.21;58.87;100930.97;4993432;28;96784;-35
2022/07/25 08:43:18;;;;;;;5.85;1.15;;;;;;;24.10;59.02;100935.88;4995017;28;96729;-35
2022/07/25 08:45:46;;;;;;;9.85;1.40;;;;;;;24.07;59.56;100935.38;4994644;28;99929;-35
2022/07/25 08:48:11;;;;;;;3.58;1.10;;;;;;;24.14;59.36;100928.06;4994846;28;100970;-35
2022/07/25 08:50:38;;;;;;;3.05;1.23;;;;;;;24.54;58.83;100949.13;4994903;28;96700;-35
2022/07/25 08:53:03;;;;;;;6.10;1.15;;;;;;;24.89;58.52;100943.19;4994871;28;96976;-35
2022/07/25 08:55:28;;;;;;;3.92;1.05;;;;;;;25.30;56.91;100928.97;4995389;28;101060;-35
2022/07/25 08:57:54;;;;;;;2.92;0.90;;;;;;;25.69;54.25;100934.22;4995642;28;97873;-35
2022/07/25 09:00:25;;;;;;;7.03;1.15;;;;;;;25.75;54.47;100915.97;4996072;28;96786;-35
2022/07/25 09:02:56;;;;;;;5.15;1.33;;;;;;;25.98;55.31;100924.19;4994539;28;96936;-35
2022/07/25 09:05:23;;;;;;;;;;;;;;;26.23;53.49;100924.72;4994627;28;103311;-35
2022/07/25 09:07:49;;;;;;;3.28;1.20;;;;;;;26.16;54.40;100916.31;4994195;28;100796;-35
2022/07/25 09:10:17;;;;;;;5.68;1.20;;;;;;;25.83;54.69;100913.09;4994513;28;97039;-35
2022/07/25 09:12:57;;;;;;;1.98;1.20;;;;;;;25.56;54.93;100912.72;4996183;28;96854;-35
2022/07/25 09:15:30;;;;;;;2.63;1.30;;;;;;;25.46;55.72;100930.69;4995490;28;97991;-35
2022/07/25 09:18:02;;;;;;;5.60;1.50;;;;;;;25.26;54.71;100924.84;4994104;28;99287;-35
2022/07/25 09:20:37;;;;;;;;;;;;;;;25.18;55.41;100945.19;4994167;28;96673;-35
2022/07/25 09:23:02;;;;;;;2.40;1.00;;;;;;;25.05;54.09;100937.50;4996291;28;96935;-35
2022/07/25 09:25:28;;;;;;;7.75;1.58;;;;;;;24.91;55.28;100946.63;4995472;28;97254;-36
2022/07/25 09:27:54;;;;;;;4.50;1.40;;;;;;;24.78;54.47;100947.25;4995275;28;97905;-35
2022/07/25 09:30:20;;;;;;;3.80;1.30;;;;;;;24.77;55.74;100959.38;4994277;28;96890;-35
2022/07/25 09:32:45;;;;;;;6.25;1.52;;;;;;;24.62;55.50;100941.81;4995697;28;96809;-35
2022/07/25 09:35:11;;;;;;;3.30;1.15;;;;;;;24.38;54.94;100966.72;4995257;28;97858;-35
2022/07/25 09:37:37;;;;;;;7.18;1.60;;;;;;;24.25;56.33;100960.03;4994043;28;100683;-35
2022/07/25 09:40:12;;;;;;;5.47;1.35;;;;;;;24.14;55.75;100980.66;4993869;28;96561;-36
2022/07/25 09:42:38;;;;;;;5.80;1.70;;;;;;;24.18;55.81;100976.50;4993689;28;96752;-35
2022/07/25 09:45:10;;;;;;;6.18;1.85;;;;;;;24.21;55.84;100978.03;4994410;28;99247;-36
2022/07/25 09:47:36;;;;;;;6.78;1.50;;;;;;;24.18;55.23;100982.03;4993659;28;101005;-35
2022/07/25 09:50:03;;;;;;;2.72;1.17;;;;;;;24.28;55.35;100982.66;4993913;28;96799;-35
2022/07/25 09:52:29;;;;;;;1.88;0.93;;;;;;;24.35;55.05;100977.28;4993403;28;96920;-35
2022/07/25 09:54:54;;;;;;;5.55;1.27;;;;;;;24.65;54.94;100983.03;4995025;28;97908;-35
2022/07/25 09:57:24;;;;;;;8.77;1.90;;;;;;;24.87;54.78;100986.84;4994829;28;97959;-35
2022/07/25 09:59:49;;;;;;;5.78;1.40;;;;;;;24.93;54.52;100988.84;4995106;28;96516;-35
2022/07/25 10:02:41;;;;;;;5.85;1.70;;;;;;;24.98;54.36;101001.13;4995701;28;96840;-35
2022/07/25 10:05:22;;;;;;;8.90;1.50;;;;;;;24.86;53.71;101005.38;4993267;28;101525;-35
2022/07/25 10:07:51;;;;;;;8.32;1.63;;;;;;;24.77;54.41;101003.72;4994586;28;97291;-35
2022/07/25 10:10:27;;;;;;;6.80;1.70;;;;;;;24.54;54.47;100993.44;4993069;28;96595;-35
2022/07/25 10:13:03;;;;;;;4.95;1.48;;;;;;;24.52;55.36;101001.09;4995045;28;96781;-35
2022/07/25 10:15:47;;;;;;;9.48;2.42;;;;;;;24.48;55.91;100994.19;4993235;28;101020;-36
2022/07/25 10:18:15;;;;;;;5.55;1.98;;;;;;;24.48;55.46;100996.09;4994470;28;99147;-35
2022/07/25 10:20:42;;;;;;;9.98;1.98;;;;;;;24.36;55.96;101001.16;4993415;28;97166;-35
2022/07/25 10:23:16;;;;;;;5.20;1.80;;;;;;;24.32;56.22;101005.34;4993414;28;96926;-35
2022/07/25 10:25:43;;;;;;;7.32;1.98;;;;;;;24.29;56.13;101016.78;4993080;28;101608;-35
2022/07/25 10:28:08;;;;;;;6.25;1.63;;;;;;;24.16;56.15;101012.66;4994605;28;99151;-36
2022/07/25 10:30:39;;;;;;;5.38;1.52;;;;;;;24.11;56.41;101023.41;4994733;28;96470;-35
2022/07/25 10:33:16;;;;;;;3.40;1.25;;;;;;;23.99;56.36;101012.91;4994847;28;96841;-35
2022/07/25 10:35:42;;;;;;;8.93;1.90;;;;;;;23.87;56.42;101020.72;4992476;28;100818;-35
2022/07/25 10:38:08;;;;;;;6.18;2.10;;;;;;;23.78;56.96;101036.47;4994159;28;99323;-35
2022/07/25 10:40:40;;;;;;;6.03;1.95;;;;;;;23.63;56.74;101030.78;4994253;28;96491;-34
2022/07/25 10:43:08;;;;;;;;;;;;;;;23.57;57.16;101031.47;4993798;28;96822;-35
2022/07/25 10:45:42;;;;;;;5.07;1.08;;;;;;;23.44;56.57;101048.59;4994301;28;99557;-34
2022/07/25 10:48:11;;;;;;;5.22;1.73;;;;;;;23.41;57.55;101040.66;4992886;28;100943;-34
2022/07/25 10:50:52;;;;;;;7.72;1.88;;;;;;;23.25;57.10;101038.75;4993062;28;96536;-34
2022/07/25 10:53:34;;;;;;;7.68;1.52;;;;;;;23.49;57.28;101048.06;4995165;28;96637;-34
2022/07/25 10:56:09;;;;;;;7.28;1.67;;;;;;;23.62;56.94;101040.13;4993737;28;99921;-35
2022/07/25 10:58:48;;;;;;;8.48;1.45;;;;;;;23.68;56.84;101041.31;4993981;28;97963;-34
2022/07/25 11:01:18;;;;;;;7.32;1.67;;;;;;;23.64;57.08;101029.72;4992306;28;96602;-37
2022/07/25 11:03:43;;;;;;;6.10;1.60;;;;;;;23.68;57.03;101049.63;4994497;28;96771;-36
2022/07/25 11:06:13;;;;;;;7.55;1.95;;;;;;;23.64;57.13;101053.75;4995719;28;101097;-36
2022/07/25 11:08:39;;;;;;;10.75;1.80;;;;;;;23.62;56.65;101053.97;4997312;28;99322;-36
2022/07/25 11:11:05;;;;;;;4.22;1.45;;;;;;;23.69;57.24;101056.84;4996339;28;96618;-36
2022/07/25 11:13:41;;;;;;;8.15;1.75;;;;;;;23.66;57.05;101044.25;4997597;28;96917;-36
2022/07/25 11:16:08;;;;;;;6.03;1.83;;;;;;;23.76;56.69;101048.75;4995920;28;100735;-36
2022/07/25 11:18:38;;;;;;;8.95;2.22;;;;;;;23.85;56.55;101044.94;4996160;28;101202;-36
2022/07/25 11:21:06;;;;;;;10.90;1.67;;;;;;;24.08;55.69;101058.91;4996242;28;96702;-36
2022/07/25 11:23:33;;;;;;;5.40;1.25;;;;;;;24.34;54.83;101053.09;4996241;28;96807;-36
2022/07/25 11:26:12;;;;;;;4.93;1.15;;;;;;;24.22;54.46;101062.81;4995475;28;101049;-36
2022/07/25 11:28:47;;;;;;;5.10;2.40;;;;;;;24.10;54.18;101046.59;4995600;28;100798;-36
2022/07/25 11:31:14;;;;;;;3.65;1.33;;;;;;;23.98;52.90;101060.97;4996081;28;96694;-36
2022/07/25 11:33:43;;;;;;;2.33;0.90;;;;;;;24.08;52.55;101059.75;4997355;28;96846;-36
2022/07/25 11:36:09;;;;;;;7.57;1.30;;;;;;;23.98;52.86;101067.41;4995468;28;101053;-36
2022/07/25 11:38:36;;;;;;;2.30;1.15;;;;;;;24.16;52.36;101053.31;4996918;28;98951;-36
2022/07/25 11:41:02;;;;;;;3.22;1.08;;;;;;;24.69;49.90;101065.56;4995307;28;96852;-36
2022/07/25 11:43:28;;;;;;;5.13;1.30;;;;;;;24.90;50.30;101051.06;4997867;28;96655;-36
2022/07/25 11:46:05;;;;;;;6.32;1.70;;;;;;;25.41;49.23;101053.31;4996735;28;98797;-36
2022/07/25 11:48:37;;;;;;;4.82;1.17;;;;;;;25.64;48.73;101051.34;4995534;28;100751;-36
2022/07/25 11:51:14;;;;;;;6.95;1.48;;;;;;;25.85;47.60;101066.41;4995199;28;96634;-36
2022/07/25 11:53:45;;;;;;;10.25;1.88;;;;;;;25.46;48.42;101056.41;4995640;28;96780;-36
2022/07/25 11:56:18;;;;;;;7.70;1.10;;;;;;;25.25;48.72;101057.09;4997203;28;97899;-36
2022/07/25 11:58:58;;;;;;;5.90;1.13;;;;;;;25.37;48.76;101069.47;4995283;28;101757;-36
2022/07/25 12:01:23;;;;;;;8.48;1.33;;;;;;;25.42;47.56;101069.75;4996776;28;97042;-36
2022/07/25 12:03:49;;;;;;;2.33;1.20;;;;;;;25.31;47.65;101072.09;4996532;28;97145;-36
2022/07/25 12:06:14;;;;;;;5.93;1.25;;;;;;;24.99;47.91;101058.28;4996449;28;97379;-36
2022/07/25 12:08:41;;;;;;;4.57;1.27;;;;;;;24.82;47.73;101053.91;4997131;28;97560;-36
2022/07/25 12:11:21;;;;;;;5.10;1.35;;;;;;;24.91;47.89;101066.66;4995385;28;96534;-36
2022/07/25 12:13:47;;;;;;;3.45;1.08;;;;;;;25.10;48.20;101062.53;4995484;28;96894;-36
2022/07/25 12:16:13;;;;;;;6.50;1.90;;;;;;;25.24;47.62;101060.03;4994339;28;98932;-36
2022/07/25 12:18:39;;;;;;;9.90;2.58;;;;;;;25.63;46.96;101071.81;4994839;28;100930;-36
2022/07/25 12:21:05;;;;;;;3.60;1.67;;;;;;;25.45;47.04;101074.06;4996852;28;96745;-36
2022/07/25 12:23:30;;;;;;;6.30;2.00;;;;;;;25.06;47.47;101082.50;4996543;28;96849;-36
2022/07/25 12:25:57;;;;;;;8.18;1.73;;;;;;;25.31;47.01;101069.34;4996386;28;97914;-36
2022/07/25 12:28:23;;;;;;;5.88;1.65;;;;;;;25.59;47.02;101064.06;4994800;28;101031;-34
2022/07/25 12:30:48;;;;;;;6.45;1.75;;;;;;;25.57;47.51;101057.84;4995149;28;96601;-35
2022/07/25 12:33:14;;;;;;;10.02;1.42;;;;;;;25.61;47.45;101067.53;4996845;28;96983;-36
2022/07/25 12:35:40;;;;;;;4.32;1.13;;;;;;;25.61;47.20;101068.38;4995730;28;112239;-36
2022/07/25 12:38:05;;;;;;;7.60;1.30;;;;;;;25.64;46.63;101065.22;4994692;28;101090;-36
2022/07/25 12:40:35;;;;;;;10.93;1.10;;;;;;;25.71;46.68;101073.66;4995620;28;96738;-36
2022/07/25 12:43:03;;;;;;;4.03;0.97;;;;;;;25.83;45.66;101062.97;4996439;28;96807;-36
2022/07/25 12:45:28;;;;;;;5.35;1.70;;;;;;;25.97;45.95;101073.25;4994500;28;101197;-36
2022/07/25 12:47:55;;;;;;;9.63;1.45;;;;;;;26.17;45.92;101078.22;4995765;28;98742;-36
2022/07/25 12:50:20;;;;;;;4.10;1.05;;;;;;;26.25;44.42;101065.13;4993757;28;96759;-36
2022/07/25 12:52:46;;;;;;;3.80;1.10;;;;;;;26.00;45.35;101063.66;4995532;28;96854;-36
2022/07/25 12:55:15;;;;;;;2.72;0.88;;;;;;;25.97;45.41;101072.38;4993859;28;98813;-37
2022/07/25 12:57:41;;;;;;;7.47;0.70;;;;;;;25.71;44.94;101083.91;4993918;28;101538;-36
2022/07/25 13:00:09;;;;;;;3.97;0.77;;;;;;;25.63;45.38;101084.84;4995281;28;96603;-36
2022/07/25 13:02:35;;;;;;;4.93;1.08;;;;;;;25.75;45.83;101075.00;4995662;28;96807;-36
2022/07/25 13:05:01;;;;;;;2.65;0.90;;;;;;;25.93;45.87;101071.91;4993734;28;101036;-36
2022/07/25 13:07:26;;;;;;;6.35;1.38;;;;;;;25.97;45.20;101064.91;4995398;28;97846;-37
2022/07/25 13:09:52;;;;;;;5.18;1.00;;;;;;;26.01;45.54;101070.97;4994459;28;96675;-36
2022/07/25 13:12:17;;;;;;;5.55;1.25;;;;;;;25.85;45.87;101086.69;4995457;28;96975;-36
2022/07/25 13:14:42;;;;;;;5.32;0.82;;;;;;;25.54;45.96;101078.50;4994252;28;115987;-36
2022/07/25 13:17:08;;;;;;;5.65;0.95;;;;;;;25.22;46.39;101082.41;4995268;28;97579;-36
2022/07/25 13:19:33;;;;;;;4.13;1.00;;;;;;;25.28;46.42;101086.34;4995285;28;96543;-36
2022/07/25 13:21:59;;;;;;;2.90;0.90;;;;;;;25.44;46.01;101083.44;4995534;28;96963;-36
2022/07/25 13:24:24;;;;;;;6.82;1.30;;;;;;;25.34;46.08;101078.16;4995449;28;97720;-36
2022/07/25 13:26:49;;;;;;;4.28;0.88;;;;;;;25.18;46.70;101081.91;4994349;28;108424;-36
2022/07/25 13:29:15;;;;;;;2.55;0.80;;;;;;;25.14;46.71;101076.88;4995050;28;96724;-36
2022/07/25 13:31:41;;;;;;;2.25;0.73;;;;;;;25.11;46.18;101083.66;4995507;28;96867;-36
2022/07/25 13:34:12;;;;;;;4.63;1.08;;;;;;;25.19;45.53;101080.00;4995477;28;97888;-36
2022/07/25 13:36:38;;;;;;;2.15;0.65;;;;;;;25.40;45.26;101074.63;4995255;28;100123;-36
2022/07/25 13:39:04;;;;;;;1.92;0.63;;;;;;;25.61;45.21;101081.41;4994215;28;96679;-36
2022/07/25 13:41:30;;;;;;;1.30;0.63;;;;;;;25.85;44.07;101088.63;4994605;28;96854;-36
2022/07/25 13:43:56;;;;;;;3.65;0.60;;;;;;;25.87;44.00;101099.56;4994606;28;98021;-36
2022/07/25 13:46:21;;;;;;;5.55;0.75;;;;;;;25.66;43.50;101109.44;4990550;28;100882;-37
2022/07/25 13:48:47;;;;;;;5.43;0.70;;;;;;;25.75;43.05;101105.53;4993886;28;97122;-37
2022/07/25 13:51:13;;;;;;;4.03;0.47;;;;;;;25.87;42.90;101097.66;4991543;28;97344;-36
2022/07/25 13:53:38;;;;;;;0.93;0.45;;;;;;;25.88;42.68;101106.84;4992972;28;101091;-36
2022/07/25 13:56:04;;;;;;;3.08;0.55;;;;;;;25.97;42.87;101106.56;4994963;28;98105;-36
2022/07/25 13:58:30;;;;;;;1.73;0.50;;;;;;;26.08;42.50;101119.13;4995255;28;96607;-36
2022/07/25 14:00:56;;;;;;;0.65;0.25;;;;;;;26.07;41.44;101103.50;4994956;28;96923;-36
2022/07/25 14:03:21;;;;;;;2.45;0.70;;;;;;;26.03;42.32;101093.84;4992656;28;99424;-36
2022/07/25 14:05:47;;;;;;;0.40;0.35;;;;;;;25.96;42.24;101102.06;4993629;28;99201;-34
2022/07/25 14:08:12;;;;;;;4.00;0.90;;;;;;;25.99;41.69;101109.16;4993667;28;96901;-36
2022/07/25 14:10:38;;;;;;;2.67;0.60;;;;;;;25.96;42.59;101107.63;4995241;28;96777;-36
2022/07/25 14:13:06;;;;;;;4.55;0.65;;;;;;;26.01;42.63;101112.63;4994749;28;97487;-36
2022/07/25 14:15:31;;;;;;;4.53;0.77;;;;;;;25.88;43.23;101124.34;4992761;28;99396;-36
2022/07/25 14:17:56;;;;;;;1.65;0.50;;;;;;;25.71;42.85;101115.28;4993822;28;96626;-36
2022/07/25 14:20:22;;;;;;;8.23;0.88;;;;;;;25.62;43.22;101110.84;4994891;28;97037;-36
2022/07/25 14:22:47;;;;;;;3.38;0.52;;;;;;;25.44;43.62;101116.75;4994610;28;97430;-36
2022/07/25 14:25:13;;;;;;;1.85;0.52;;;;;;;25.45;44.01;101107.34;4993682;28;97952;-37
2022/07/25 14:27:38;;;;;;;2.45;0.70;;;;;;;25.42;44.19;101125.22;4993576;28;96611;-36
2022/07/25 14:30:05;;;;;;;2.70;0.70;;;;;;;25.53;44.38;101128.63;4994201;28;96878;-36
2022/07/25 14:32:31;;;;;;;1.50;0.50;;;;;;;25.37;44.10;101136.03;4992325;28;102075;-36
2022/07/25 14:34:56;;;;;;;2.53;0.73;;;;;;;25.21;44.16;101113.94;4994676;28;97730;-36
2022/07/25 14:37:22;;;;;;;2.40;0.50;;;;;;;25.18;44.39;101123.50;4993300;28;97179;-37
2022/07/25 14:39:48;;;;;;;1.52;0.55;;;;;;;25.28;44.50;101116.84;4996723;28;96764;-36
2022/07/25 14:42:13;;;;;;;1.17;0.50;;;;;;;25.39;43.92;101120.06;4997089;28;97385;-36
2022/07/25 14:44:39;;;;;;;1.42;0.40;;;;;;;25.36;43.91;101125.09;4997588;28;99142;-36
2022/07/25 14:47:07;;;;;;;1.25;0.50;;;;;;;25.40;44.33;101116.22;4998364;28;96440;-36
2022/07/25 14:49:32;;;;;;;3.30;0.65;;;;;;;25.36;44.93;101126.00;4996652;28;96880;-36
2022/07/25 14:51:58;;;;;;;2.65;0.88;;;;;;;25.33;45.18;101123.56;4997708;28;99360;-36
2022/07/25 14:54:27;;;;;;;3.40;1.13;;;;;;;25.33;44.98;101119.94;4996734;28;97861;-36
2022/07/25 14:56:55;;;;;;;3.67;0.65;;;;;;;25.38;44.75;101121.09;4995578;28;96990;-37
2022/07/25 14:59:21;;;;;;;5.53;0.60;;;;;;;25.25;44.42;101114.47;4996759;28;96903;-36
2022/07/25 15:01:47;;;;;;;2.65;0.52;;;;;;;25.23;44.84;101122.09;4996262;28;100999;-36
2022/07/25 15:04:12;;;;;;;1.67;0.43;;;;;;;25.23;45.08;101120.19;4997510;28;99074;-36
2022/07/25 15:06:37;;;;;;;1.38;0.50;;;;;;;25.23;44.78;101109.09;4997409;28;96642;-36
2022/07/25 15:09:03;;;;;;;10.38;1.00;;;;;;;25.10;44.71;101114.34;4998161;28;96786;-36
2022/07/25 15:11:29;;;;;;;3.75;0.70;;;;;;;25.12;44.91;101129.78;4995832;28;100918;-36
2022/07/25 15:13:56;;;;;;;1.27;0.55;;;;;;;25.12;44.62;101127.00;4997620;28;98086;-36
2022/07/25 15:16:22;;;;;;;4.65;0.60;;;;;;;25.11;45.04;101122.47;4996518;28;96520;-36
2022/07/25 15:18:47;;;;;;;2.20;0.63;;;;;;;25.16;45.27;101127.47;4997774;28;96765;-36
2022/07/25 15:21:12;;;;;;;2.92;0.43;;;;;;;24.92;44.99;101126.56;4997347;28;97420;-36
2022/07/25 15:23:37;;;;;;;11.82;1.27;;;;;;;24.87;45.06;101117.94;4997950;28;96522;-36
2022/07/25 15:26:03;;;;;;;4.03;0.63;;;;;;;24.76;45.45;101116.44;4997481;28;96779;-36
2022/07/25 15:28:33;;;;;;;6.95;0.70;;;;;;;24.76;45.77;101126.66;4996075;28;96668;-36
2022/07/25 15:30:58;;;;;;;1.40;0.50;;;;;;;24.84;46.31;101125.75;4995384;28;101023;-36
2022/07/25 15:33:24;;;;;;;3.33;0.45;;;;;;;24.88;45.84;101116.88;4997319;28;97772;-36
2022/07/25 15:35:50;;;;;;;5.68;0.55;;;;;;;24.84;45.74;101134.06;4995989;28;96682;-36
2022/07/25 15:38:16;;;;;;;2.83;0.63;;;;;;;24.68;45.90;101124.78;4995991;28;96823;-36
2022/07/25 15:40:42;;;;;;;2.20;0.77;;;;;;;24.69;45.97;101139.50;4994923;28;101028;-36
2022/07/25 15:43:08;;;;;;;3.20;0.77;;;;;;;24.69;46.60;101140.38;4997048;28;99175;-36
2022/07/25 15:45:38;;;;;;;2.90;0.65;;;;;;;24.64;47.17;101151.13;4997339;28;96809;-36
2022/07/25 15:48:08;;;;;;;0.57;0.30;;;;;;;24.57;46.15;101153.78;4996180;28;96838;-36
2022/07/25 15:50:38;;;;;;;1.15;0.52;;;;;;;24.49;47.32;101158.47;4995022;28;101385;-36
2022/07/25 15:53:04;;;;;;;3.97;0.73;;;;;;;24.44;46.75;101150.66;4995180;28;100782;-36
2022/07/25 15:55:30;;;;;;;3.83;0.80;;;;;;;24.36;47.18;101129.41;4995131;28;96593;-36
2022/07/25 15:57:56;;;;;;;3.00;0.80;;;;;;;24.30;47.39;101154.16;4997044;28;96773;-36
2022/07/25 16:00:22;;;;;;;4.97;1.05;;;;;;;24.23;47.69;101142.06;4995136;28;101264;-35
2022/07/25 16:02:48;;;;;;;5.13;1.13;;;;;;;24.07;48.13;101163.19;4996613;28;99006;-36
2022/07/25 16:05:14;;;;;;;3.80;0.50;;;;;;;23.97;48.25;101162.50;4995589;28;96607;-36
2022/07/25 16:07:40;;;;;;;3.30;0.50;;;;;;;23.96;48.27;101169.09;4995256;28;96943;-36
2022/07/25 16:10:07;;;;;;;4.75;0.82;;;;;;;23.85;48.45;101158.38;4995007;28;100216;-36
2022/07/25 16:12:33;;;;;;;3.13;0.57;;;;;;;23.82;48.92;101154.06;4995500;28;100823;-36
2022/07/25 16:14:58;;;;;;;2.83;0.63;;;;;;;23.85;49.69;101156.47;4996810;28;96549;-36
2022/07/25 16:17:25;;;;;;;7.65;1.05;;;;;;;23.79;48.84;101159.06;4996806;28;96783;-36
2022/07/25 16:19:52;;;;;;;4.57;0.68;;;;;;;23.69;48.89;101159.22;4988910;28;100919;-36
2022/07/25 16:22:18;;;;;;;4.60;0.95;;;;;;;23.69;49.15;101175.81;4983408;28;101284;-37
2022/07/25 16:24:43;;;;;;;8.02;1.42;;;;;;;23.67;49.40;101167.69;4975566;28;96554;-36
2022/07/25 16:27:09;;;;;;;4.55;0.77;;;;;;;23.76;49.60;101156.66;4988551;28;97002;-36
2022/07/25 16:29:34;;;;;;;4.82;1.20;;;;;;;23.66;50.19;101151.25;4985520;28;97831;-36
2022/07/25 16:31:59;;;;;;;2.28;0.60;;;;;;;23.61;50.84;101162.84;4995993;28;99149;-37
2022/07/25 16:34:25;;;;;;;5.50;1.00;;;;;;;23.48;50.64;101162.50;4995985;28;110241;-37
2022/07/25 16:36:51;;;;;;;4.35;0.80;;;;;;;23.36;50.83;101169.38;4996337;28;96853;-37
2022/07/25 16:39:17;;;;;;;2.63;0.47;;;;;;;23.38;50.98;101173.69;4978043;28;100522;-36
2022/07/25 16:41:43;;;;;;;4.15;0.90;;;;;;;23.34;50.73;101172.31;4972819;28;100863;-36
2022/07/25 16:44:08;;;;;;;3.22;0.95;;;;;;;23.13;51.44;101183.84;4974780;28;96912;-36
2022/07/25 16:46:34;;;;;;;3.50;1.00;;;;;;;23.11;50.93;101181.25;4975070;28;96874;-36
2022/07/25 16:49:00;;;;;;;1.42;0.50;;;;;;;22.93;51.23;101179.59;4973429;28;100671;-36
2022/07/25 16:51:25;;;;;;;3.30;0.32;;;;;;;22.86;51.29;101174.75;4974662;28;99085;-36
2022/07/25 16:53:50;;;;;;;4.25;0.75;;;;;;;22.87;50.94;101182.00;4975494;28;96856;-36
2022/07/25 16:56:16;;;;;;;5.15;0.70;;;;;;;22.86;51.39;101194.09;4976055;28;96868;-36
2022/07/25 16:58:41;;;;;;;6.47;0.60;;;;;;;22.84;51.36;101193.38;4975845;28;97862;-36
2022/07/25 17:01:07;;;;;;;1.55;0.40;;;;;;;22.72;51.77;101177.28;4974346;28;101988;-36
2022/07/25 17:03:32;;;;;;;1.02;0.30;;;;;;;22.80;51.77;101193.88;4975385;28;96442;-36
2022/07/25 17:05:57;;;;;;;1.95;0.63;;;;;;;22.69;51.41;101182.13;4975837;28;96831;-36
2022/07/25 17:08:24;;;;;;;4.88;0.50;;;;;;;22.64;51.80;101191.91;4974573;28;112844;-36
2022/07/25 17:10:49;;;;;;;3.08;0.57;;;;;;;22.57;52.14;101191.72;4975385;28;99799;-36
2022/07/25 17:13:15;;;;;;;3.10;0.65;;;;;;;22.53;52.21;101206.03;4975899;28;96622;-36
2022/07/25 17:15:42;;;;;;;1.75;0.50;;;;;;;22.48;52.21;101200.97;4976141;28;96751;-36
2022/07/25 17:18:08;;;;;;;2.92;0.68;;;;;;;22.41;52.70;101186.97;4974274;28;101046;-36
2022/07/25 17:20:33;;;;;;;2.42;0.70;;;;;;;22.40;52.62;101187.97;4974613;28;114692;-36
2022/07/25 17:22:59;;;;;;;3.53;0.65;;;;;;;22.44;52.87;101189.38;4976337;28;96497;-36
2022/07/25 17:25:24;;;;;;;3.70;0.70;;;;;;;22.40;52.90;101179.69;4976143;28;96841;-36
2022/07/25 17:27:50;;;;;;;1.88;0.50;;;;;;;22.37;52.75;101190.22;4975589;28;97156;-36
2022/07/25 17:30:15;;;;;;;4.13;0.88;;;;;;;22.36;53.16;101194.00;4975322;28;99243;-36
2022/07/25 17:32:42;;;;;;;3.42;0.75;;;;;;;22.25;53.66;101175.81;4975295;28;96618;-35
2022/07/25 17:35:08;;;;;;;7.85;1.08;;;;;;;22.24;53.41;101191.53;4974207;28;96915;-36
2022/07/25 17:37:35;;;;;;;2.83;0.75;;;;;;;22.21;54.06;101171.66;4974165;28;99473;-36
2022/07/25 17:40:00;;;;;;;3.28;0.93;;;;;;;22.25;53.59;101189.63;4973234;28;99952;-36
2022/07/25 17:42:26;;;;;;;7.28;0.70;;;;;;;22.24;53.96;101190.66;4974832;28;96817;-36
2022/07/25 17:44:52;;;;;;;6.28;0.95;;;;;;;22.22;54.42;101184.44;4975832;28;96899;-35
2022/07/25 17:47:17;;;;;;;2.40;0.70;;;;;;;22.12;54.62;101190.03;4975195;28;101644;-36
2022/07/25 17:49:43;;;;;;;2.63;0.57;;;;;;;22.09;55.07;101187.56;4975525;28;98739;-36
2022/07/25 17:52:12;;;;;;;5.05;0.57;;;;;;;22.04;55.05;101199.09;4973979;28;96557;-36
2022/07/25 17:54:41;;;;;;;1.02;0.38;;;;;;;22.02;55.57;101201.16;4975362;28;96887;-36
2022/07/25 17:57:06;;;;;;;4.25;1.30;;;;;;;22.03;56.29;101204.78;4974410;28;98563;-36
2022/07/25 17:59:33;;;;;;;3.58;0.90;;;;;;;22.00;56.04;101207.84;4975005;28;99158;-36
2022/07/25 18:01:58;;;;;;;2.55;1.10;;;;;;;21.89;56.19;101206.22;4975439;28;96674;-36
2022/07/25 18:04:24;;;;;;;5.60;0.90;;;;;;;21.80;55.75;101194.25;4975358;28;96696;-36
2022/07/25 18:06:49;;;;;;;3.45;0.55;;;;;;;21.80;56.12;101209.94;4974562;28;108645;-36